Time;durP1;ratioP1;P1;durP2;ratioP2;P2;SDS_P1;SDS_P2;PMS_P1;PMS_P2;Temp;Humidity;BMP_temperature;BMP_pressure;BME280_temperature;BME280_humidity;BME280_pressure;Samples;Min_cycle;Max_cycle;Signal;HPM_P1;HPM_P2
2022/06/24 00:02:01;;;;;;;46.75;20.10;;;23.70;57.30;;;;;;5076763;28;20076;-40
2022/06/24 00:04:28;;;;;;;28.73;13.13;;;23.70;57.20;;;;;;5063725;28;20040;-40
2022/06/24 00:06:56;;;;;;;22.08;10.25;;;23.60;57.10;;;;;;5071292;28;20111;-40
2022/06/24 00:09:22;;;;;;;19.38;8.85;;;23.60;57.10;;;;;;5095312;28;20028;-40
2022/06/24 00:12:04;;;;;;;13.15;7.15;;;23.60;57.00;;;;;;5101542;28;20053;-40
2022/06/24 00:14:30;;;;;;;11.15;6.32;;;23.60;57.00;;;;;;5102633;28;20032;-45
2022/06/24 00:17:02;;;;;;;9.02;5.25;;;23.60;56.80;;;;;;5104269;28;20035;-39
2022/06/24 00:19:30;;;;;;;8.90;5.30;;;23.60;56.80;;;;;;5090468;28;20025;-40
2022/06/24 00:22:16;;;;;;;6.93;4.53;;;23.60;56.70;;;;;;5001561;28;20046;-40
2022/06/24 00:24:42;;;;;;;7.03;4.45;;;23.50;56.80;;;;;;4985452;28;20142;-40
2022/06/24 00:27:22;;;;;;;8.13;4.40;;;23.50;56.90;;;;;;5001536;28;20117;-40
2022/06/24 00:29:54;;;;;;;5.97;3.85;;;23.50;56.90;;;;;;5001235;28;20041;-40
2022/06/24 00:32:30;;;;;;;4.90;3.42;;;23.50;56.60;;;;;;4983220;28;20114;-40
2022/06/24 00:35:10;;;;;;;5.50;3.45;;;23.50;56.70;;;;;;5001329;28;20026;-40
2022/06/24 00:37:37;;;;;;;5.10;3.58;;;23.50;56.80;;;;;;5001481;28;20030;-40
2022/06/24 00:40:23;;;;;;;6.07;3.60;;;23.50;56.70;;;;;;5001396;28;20034;-39
2022/06/24 00:42:49;;;;;;;4.32;2.75;;;23.50;56.50;;;;;;5001174;28;20618;-39
2022/06/24 00:45:27;;;;;;;3.55;2.80;;;23.50;56.40;;;;;;5001016;28;20085;-39
2022/06/24 00:47:54;;;;;;;2.88;2.53;;;23.50;56.30;;;;;;5000819;28;20102;-40
2022/06/24 00:50:21;;;;;;;3.50;2.80;;;23.50;56.80;;;;;;4985290;28;20030;-40
2022/06/24 00:52:52;;;;;;;4.15;2.70;;;23.50;56.20;;;;;;5000663;28;20054;-37
2022/06/24 00:55:25;;;;;;;3.65;2.28;;;23.40;56.20;;;;;;5001086;28;20041;-40
2022/06/24 00:57:51;;;;;;;2.75;2.22;;;23.40;56.10;;;;;;4990473;28;20026;-38
2022/06/24 01:00:18;;;;;;;3.47;2.60;;;23.40;56.20;;;;;;5053791;28;20032;-40
2022/06/24 01:02:44;;;;;;;3.13;2.50;;;23.50;56.20;;;;;;5074169;28;20040;-38
2022/06/24 01:05:10;;;;;;;2.85;2.03;;;23.50;55.90;;;;;;5081872;28;20035;-53
2022/06/24 01:07:40;;;;;;;3.27;1.77;;;23.60;55.90;;;;;;5083084;28;20052;-55
2022/06/24 01:10:07;;;;;;;2.70;1.73;;;23.50;55.80;;;;;;5076089;28;20059;-49
2022/06/24 01:12:33;;;;;;;;;;;23.40;56.00;;;;;;5081125;28;20058;-48
2022/06/24 01:15:00;;;;;;;2.20;1.60;;;23.30;56.20;;;;;;5082649;28;19905;-47
2022/06/24 01:17:26;;;;;;;3.72;1.80;;;23.30;56.20;;;;;;5081119;28;20071;-50
2022/06/24 01:19:52;;;;;;;2.85;1.70;;;23.30;56.20;;;;;;5082188;28;20052;-47
2022/06/24 01:22:22;;;;;;;1.55;1.45;;;23.30;56.20;;;;;;5079930;28;20029;-49
2022/06/24 01:24:48;;;;;;;2.30;1.70;;;23.20;56.10;;;;;;5082620;28;20493;-47
2022/06/24 01:27:14;;;;;;;1.85;1.65;;;23.20;56.00;;;;;;5082832;28;20037;-51
2022/06/24 01:29:41;;;;;;;1.88;1.58;;;23.20;56.00;;;;;;5082406;28;20088;-48
2022/06/24 01:32:07;;;;;;;1.80;1.40;;;23.20;56.00;;;;;;5081584;28;20056;-49
2022/06/24 01:34:33;;;;;;;2.53;1.50;;;23.20;56.00;;;;;;5082309;28;20043;-47
2022/06/24 01:36:59;;;;;;;1.88;1.48;;;23.20;56.00;;;;;;5082978;28;20638;-48
2022/06/24 01:39:25;;;;;;;3.25;1.52;;;23.10;55.80;;;;;;5081176;28;20021;-48
2022/06/24 01:41:52;;;;;;;2.15;1.42;;;23.10;55.90;;;;;;5080559;28;20056;-48
2022/06/24 01:44:19;;;;;;;1.42;1.33;;;23.10;56.00;;;;;;5079938;28;20044;-47
2022/06/24 01:46:45;;;;;;;1.58;1.48;;;23.10;55.90;;;;;;5078319;28;20782;-48
2022/06/24 01:49:11;;;;;;;2.53;1.23;;;23.00;55.80;;;;;;5076754;28;20051;-48
2022/06/24 01:51:38;;;;;;;2.17;1.45;;;23.00;55.80;;;;;;5072400;28;20039;-49
2022/06/24 01:54:04;;;;;;;;;;;23.00;55.90;;;;;;5080034;28;20122;-47
2022/06/24 01:56:30;;;;;;;1.80;1.50;;;23.00;55.80;;;;;;5075779;28;20384;-49
2022/06/24 01:58:56;;;;;;;1.85;1.25;;;22.90;55.90;;;;;;5066539;28;20040;-48
2022/06/24 02:01:22;;;;;;;1.60;1.50;;;22.90;55.90;;;;;;5069226;28;20088;-51
2022/06/24 02:03:48;;;;;;;1.73;1.60;;;22.90;55.80;;;;;;5074475;28;20028;-48
2022/06/24 02:06:15;;;;;;;2.45;1.73;;;22.80;55.90;;;;;;5070256;28;20047;-48
2022/06/24 02:08:41;;;;;;;1.63;1.45;;;22.90;55.80;;;;;;5075809;28;20399;-46
2022/06/24 02:13:51;;;;;;;1.67;1.42;;;22.80;55.90;;;;;;5062699;28;20101;-48
2022/06/24 02:16:21;;;;;;;1.80;1.30;;;22.80;55.80;;;;;;5073442;28;20032;-47
2022/06/24 02:18:47;;;;;;;1.48;1.30;;;22.80;55.80;;;;;;5072765;28;20071;-47
2022/06/24 02:21:14;;;;;;;2.33;1.42;;;22.70;55.70;;;;;;5074737;28;20115;-48
2022/06/24 02:23:40;;;;;;;1.60;1.35;;;22.70;55.80;;;;;;5071808;28;20029;-47
2022/06/24 02:26:06;;;;;;;1.60;1.50;;;22.70;55.80;;;;;;5077853;28;20048;-48
2022/06/24 02:28:33;;;;;;;1.88;1.40;;;22.70;56.00;;;;;;5083682;28;20048;-49
2022/06/24 02:30:59;;;;;;;1.63;1.48;;;22.60;55.80;;;;;;5080805;28;20036;-49
2022/06/24 02:33:26;;;;;;;1.63;1.40;;;22.60;55.80;;;;;;5081945;28;20020;-49
2022/06/24 02:35:52;;;;;;;1.92;1.60;;;22.60;55.80;;;;;;5068536;28;20033;-49
2022/06/24 02:38:19;;;;;;;2.75;1.25;;;22.60;55.70;;;;;;5071870;28;20033;-49
2022/06/24 02:40:48;;;;;;;1.63;1.30;;;22.60;55.80;;;;;;5083379;28;20021;-47
2022/06/24 02:43:25;;;;;;;1.35;1.13;;;22.60;55.70;;;;;;5083518;28;20048;-48
2022/06/24 02:45:58;;;;;;;1.55;1.40;;;22.60;55.70;;;;;;5082748;28;20086;-47
2022/06/24 02:48:24;;;;;;;1.67;1.50;;;22.50;55.70;;;;;;5072431;28;20031;-47
2022/06/24 02:50:52;;;;;;;1.70;1.10;;;22.50;55.70;;;;;;5083584;28;20067;-46
2022/06/24 02:53:19;;;;;;;1.52;1.30;;;22.50;55.70;;;;;;5072507;28;20047;-49
2022/06/24 02:55:46;;;;;;;1.77;1.52;;;22.40;55.70;;;;;;5070975;28;20028;-46
2022/06/24 02:58:12;;;;;;;2.05;1.30;;;22.40;55.70;;;;;;5067889;28;20386;-46
2022/06/24 03:00:42;;;;;;;2.63;1.60;;;22.40;55.70;;;;;;5070930;28;20652;-47
2022/06/24 03:03:09;;;;;;;1.60;1.40;;;22.40;55.70;;;;;;5061857;28;20049;-46
2022/06/24 03:05:35;;;;;;;2.80;1.20;;;22.40;55.70;;;;;;5069052;28;20377;-47
2022/06/24 03:08:01;;;;;;;1.73;1.45;;;22.40;55.80;;;;;;5070929;28;20119;-48
2022/06/24 03:10:27;;;;;;;2.13;1.92;;;22.30;55.60;;;;;;5062896;28;20108;-47
2022/06/24 03:12:53;;;;;;;2.03;1.50;;;22.30;55.70;;;;;;5063805;28;20036;-48
2022/06/24 03:15:19;;;;;;;1.58;1.48;;;22.30;55.60;;;;;;5069327;28;20095;-49
2022/06/24 03:17:46;;;;;;;1.55;1.40;;;22.30;55.70;;;;;;5069627;28;20063;-47
2022/06/24 03:20:12;;;;;;;2.00;1.50;;;22.30;55.80;;;;;;5066160;28;20029;-47
2022/06/24 03:22:39;;;;;;;1.30;1.20;;;22.20;55.70;;;;;;5069487;28;20290;-49
2022/06/24 03:25:05;;;;;;;1.73;1.33;;;22.20;55.70;;;;;;5071793;28;20024;-48
2022/06/24 03:27:32;;;;;;;1.70;1.50;;;22.20;55.70;;;;;;5082596;28;20297;-49
2022/06/24 03:29:58;;;;;;;1.80;1.52;;;22.10;55.70;;;;;;5081181;28;20040;-47
2022/06/24 03:32:24;;;;;;;1.83;1.48;;;22.10;55.70;;;;;;5078266;28;20030;-48
2022/06/24 03:34:50;;;;;;;2.00;1.58;;;22.10;55.70;;;;;;5082683;28;20118;-47
2022/06/24 03:37:16;;;;;;;1.48;1.38;;;22.10;55.70;;;;;;5083276;28;20089;-49
2022/06/24 03:39:42;;;;;;;1.98;1.60;;;22.10;55.80;;;;;;5084232;28;20080;-47
2022/06/24 03:42:08;;;;;;;2.13;1.67;;;22.00;55.80;;;;;;5081518;28;20048;-46
2022/06/24 03:44:34;;;;;;;1.60;1.27;;;22.00;56.00;;;;;;5082226;28;20029;-47
2022/06/24 03:47:03;;;;;;;1.60;1.50;;;22.00;56.00;;;;;;5080784;28;20062;-47
2022/06/24 03:49:29;;;;;;;1.58;1.23;;;22.00;55.90;;;;;;5070671;28;20024;-47
2022/06/24 03:51:55;;;;;;;2.78;1.40;;;22.00;56.50;;;;;;5083717;28;20044;-48
2022/06/24 03:54:22;;;;;;;1.60;1.50;;;21.90;55.90;;;;;;5082705;28;20025;-48
2022/06/24 03:56:48;;;;;;;1.95;1.48;;;21.90;55.90;;;;;;5070256;28;20033;-47
2022/06/24 03:59:14;;;;;;;2.63;1.52;;;21.90;56.00;;;;;;5071252;28;20037;-49
2022/06/24 04:01:40;;;;;;;2.83;1.67;;;21.90;56.00;;;;;;5074803;28;20021;-47
2022/06/24 04:04:06;;;;;;;1.77;1.50;;;21.90;56.00;;;;;;5073207;28;20493;-48
2022/06/24 04:06:32;;;;;;;2.00;1.52;;;21.80;56.00;;;;;;5069812;28;20045;-47
2022/06/24 04:08:59;;;;;;;1.70;1.40;;;21.80;56.00;;;;;;5073260;28;20054;-46
2022/06/24 04:11:25;;;;;;;1.60;1.38;;;21.80;56.00;;;;;;5070248;28;20130;-47
2022/06/24 04:13:51;;;;;;;2.95;1.60;;;21.80;56.10;;;;;;5068458;28;20937;-46
2022/06/24 04:16:17;;;;;;;4.25;1.85;;;21.80;56.00;;;;;;5071456;28;20046;-47
2022/06/24 04:18:43;;;;;;;1.55;1.45;;;21.70;56.00;;;;;;5071386;28;20084;-49
2022/06/24 04:21:13;;;;;;;2.20;1.60;;;21.70;56.00;;;;;;5071411;28;20026;-46
2022/06/24 04:23:39;;;;;;;3.42;1.40;;;21.70;56.10;;;;;;5070392;28;20190;-47
2022/06/24 04:26:06;;;;;;;1.60;1.38;;;21.70;56.20;;;;;;5069438;28;20044;-45
2022/06/24 04:28:32;;;;;;;1.57;1.40;;;21.60;56.10;;;;;;5061401;28;20032;-45
2022/06/24 04:30:58;;;;;;;1.83;1.40;;;21.60;56.10;;;;;;5066387;28;20024;-47
2022/06/24 04:33:24;;;;;;;1.95;1.40;;;21.60;56.30;;;;;;5071562;28;20597;-47
2022/06/24 04:35:50;;;;;;;1.77;1.55;;;21.60;56.30;;;;;;5082137;28;20043;-46
2022/06/24 04:38:16;;;;;;;1.70;1.48;;;21.50;56.30;;;;;;5080723;28;20055;-45
2022/06/24 04:40:42;;;;;;;1.60;1.50;;;21.50;56.80;;;;;;5081701;28;20059;-45
2022/06/24 04:43:09;;;;;;;2.45;1.40;;;21.50;56.30;;;;;;5080554;28;20125;-45
2022/06/24 04:45:35;;;;;;;1.73;1.52;;;21.50;56.20;;;;;;5080800;28;20032;-47
2022/06/24 04:48:01;;;;;;;2.23;1.40;;;21.50;56.30;;;;;;5082063;28;20036;-46
2022/06/24 04:50:27;;;;;;;2.00;1.70;;;21.40;56.40;;;;;;5081708;28;20368;-48
2022/06/24 04:52:53;;;;;;;2.05;1.20;;;21.40;56.40;;;;;;5080168;28;20029;-47
2022/06/24 04:55:20;;;;;;;1.75;1.65;;;21.40;56.40;;;;;;5082015;28;20043;-47
2022/06/24 04:58:06;;;;;;;1.90;1.58;;;21.30;56.30;;;;;;5019727;28;20053;-48
2022/06/24 05:00:32;;;;;;;2.10;1.85;;;21.30;56.30;;;;;;5019840;28;20150;-48
2022/06/24 05:02:58;;;;;;;1.60;1.40;;;21.30;56.30;;;;;;5018585;28;20046;-47
2022/06/24 05:05:24;;;;;;;3.45;1.50;;;21.20;56.30;;;;;;5019591;28;20124;-50
2022/06/24 05:07:50;;;;;;;1.73;1.58;;;21.20;56.40;;;;;;5019621;28;20029;-47
2022/06/24 05:10:16;;;;;;;2.03;1.70;;;21.20;56.40;;;;;;5019629;28;20037;-47
2022/06/24 05:12:42;;;;;;;1.92;1.25;;;21.20;56.50;;;;;;5019482;28;20033;-46
2022/06/24 05:15:09;;;;;;;2.53;1.67;;;21.10;56.40;;;;;;5018915;28;20053;-48
2022/06/24 05:17:35;;;;;;;2.10;1.80;;;21.10;56.40;;;;;;5019072;28;20521;-49
2022/06/24 05:20:01;;;;;;;1.15;1.05;;;21.10;56.50;;;;;;5018938;28;20038;-46
2022/06/24 05:22:27;;;;;;;1.67;1.58;;;21.10;56.50;;;;;;5016610;28;20431;-46
2022/06/24 05:24:54;;;;;;;1.88;1.67;;;21.10;56.50;;;;;;5020113;28;20049;-47
2022/06/24 05:27:20;;;;;;;1.85;1.50;;;21.00;56.40;;;;;;5019452;28;20038;-47
2022/06/24 05:29:46;;;;;;;4.63;2.00;;;21.00;56.50;;;;;;5019365;28;20033;-45
2022/06/24 05:32:12;;;;;;;1.85;1.63;;;21.00;56.40;;;;;;5016313;28;20048;-47
2022/06/24 05:34:38;;;;;;;1.90;1.40;;;21.00;56.40;;;;;;5030281;28;20043;-48
2022/06/24 05:37:04;;;;;;;1.63;1.50;;;20.90;56.50;;;;;;5078531;28;20595;-49
2022/06/24 05:39:31;;;;;;;2.03;1.80;;;20.90;56.40;;;;;;5085564;28;20043;-46
2022/06/24 05:41:57;;;;;;;2.20;1.92;;;20.90;56.60;;;;;;5084310;28;20049;-46
2022/06/24 05:44:23;;;;;;;1.52;1.42;;;20.90;56.60;;;;;;5087212;28;20227;-47
2022/06/24 05:46:49;;;;;;;1.77;1.63;;;20.90;56.40;;;;;;5087945;28;20047;-47
2022/06/24 05:49:15;;;;;;;1.92;1.60;;;20.80;56.50;;;;;;5084994;28;20032;-49
2022/06/24 05:51:41;;;;;;;1.98;1.52;;;20.80;56.50;;;;;;5078899;28;20033;-46
2022/06/24 05:56:51;;;;;;;1.92;1.60;;;20.80;56.50;;;;;;5077919;28;20047;-47
2022/06/24 05:59:17;;;;;;;1.75;1.35;;;20.70;56.40;;;;;;5087070;28;20040;-47
2022/06/24 06:01:44;;;;;;;1.60;1.48;;;20.70;56.90;;;;;;5082746;28;20029;-53
2022/06/24 06:04:10;;;;;;;1.70;1.60;;;20.70;56.30;;;;;;5068662;28;20028;-48
2022/06/24 06:06:36;;;;;;;1.55;1.23;;;20.70;56.30;;;;;;5074234;28;20151;-46
2022/06/24 06:09:02;;;;;;;1.63;1.52;;;20.60;56.30;;;;;;5087926;28;20024;-46
2022/06/24 06:11:28;;;;;;;1.60;1.47;;;20.60;56.40;;;;;;5086430;28;20088;-47
2022/06/24 06:13:55;;;;;;;1.88;1.52;;;20.60;56.40;;;;;;5087136;28;20276;-48
2022/06/24 06:16:22;;;;;;;1.50;1.40;;;20.60;56.40;;;;;;5084753;28;20071;-47
2022/06/24 06:18:48;;;;;;;1.50;1.30;;;20.60;56.30;;;;;;5072693;28;20096;-47
2022/06/24 06:21:15;;;;;;;1.83;1.50;;;20.50;56.30;;;;;;5088392;28;20036;-52
2022/06/24 06:23:41;;;;;;;3.50;1.52;;;20.50;56.30;;;;;;5087988;28;20054;-48
2022/06/24 06:26:08;;;;;;;2.00;1.60;;;20.50;56.40;;;;;;5083644;28;20029;-47
2022/06/24 06:28:34;;;;;;;1.50;1.27;;;20.40;56.40;;;;;;5088050;28;20028;-47
2022/06/24 06:31:00;;;;;;;1.45;1.27;;;20.40;56.30;;;;;;5087445;28;20033;-46
2022/06/24 06:33:27;;;;;;;2.00;1.55;;;20.40;56.30;;;;;;5081879;28;20032;-47
2022/06/24 06:36:04;;;;;;;2.17;1.50;;;20.40;56.40;;;;;;5086926;28;20031;-49
2022/06/24 06:38:30;;;;;;;1.77;1.50;;;20.30;56.40;;;;;;5080395;28;20040;-46
2022/06/24 06:40:56;;;;;;;2.05;1.65;;;20.30;56.50;;;;;;5086281;28;20035;-48
2022/06/24 06:43:22;;;;;;;1.70;1.35;;;20.30;56.60;;;;;;5084204;28;20037;-47
2022/06/24 06:45:48;;;;;;;1.77;1.58;;;20.30;56.60;;;;;;5077488;28;20092;-48
2022/06/24 06:48:14;;;;;;;1.50;1.40;;;20.30;56.50;;;;;;5084765;28;20036;-48
2022/06/24 06:50:40;;;;;;;1.85;1.40;;;20.20;56.60;;;;;;5085592;28;20025;-46
2022/06/24 06:53:07;;;;;;;1.55;1.45;;;20.20;56.90;;;;;;5082351;28;20119;-47
2022/06/24 06:55:33;;;;;;;1.88;1.35;;;20.20;57.40;;;;;;5073213;28;20028;-47
2022/06/24 06:57:59;;;;;;;1.60;1.50;;;20.20;57.50;;;;;;5070919;28;20028;-48
2022/06/24 07:00:25;;;;;;;1.50;1.33;;;20.20;57.70;;;;;;5072610;28;20032;-48
2022/06/24 07:02:52;;;;;;;1.95;1.77;;;20.20;58.20;;;;;;5072651;28;20033;-47
2022/06/24 07:05:18;;;;;;;2.00;1.77;;;20.20;58.50;;;;;;5070234;28;20043;-49
2022/06/24 07:07:44;;;;;;;2.10;1.77;;;20.20;58.40;;;;;;5072410;28;20080;-47
2022/06/24 07:10:10;;;;;;;1.92;1.33;;;20.20;58.70;;;;;;5072563;28;20032;-47
2022/06/24 07:12:37;;;;;;;2.00;1.70;;;20.20;58.70;;;;;;5069804;28;20041;-46
2022/06/24 07:15:03;;;;;;;1.75;1.40;;;20.20;58.60;;;;;;5074021;28;20099;-46
2022/06/24 07:17:29;;;;;;;1.83;1.60;;;20.20;58.70;;;;;;5074875;28;20056;-47
2022/06/24 07:19:55;;;;;;;1.85;1.42;;;20.20;58.70;;;;;;5070856;28;20036;-45
2022/06/24 07:22:21;;;;;;;2.17;1.65;;;20.20;58.60;;;;;;5073380;28;20033;-46
2022/06/24 07:24:47;;;;;;;1.88;1.77;;;20.20;58.70;;;;;;5072282;28;20124;-46
2022/06/24 07:27:13;;;;;;;2.58;1.73;;;20.20;58.70;;;;;;5078816;28;20062;-47
2022/06/24 07:29:40;;;;;;;1.77;1.55;;;20.20;58.70;;;;;;5083144;28;20035;-46
2022/06/24 07:32:07;;;;;;;2.33;1.63;;;20.30;58.70;;;;;;5075233;28;20037;-43
2022/06/24 07:34:33;;;;;;;2.53;1.98;;;20.30;58.80;;;;;;5070092;28;20091;-47
2022/06/24 07:37:03;;;;;;;2.15;1.52;;;20.30;58.80;;;;;;5077692;28;20032;-47
2022/06/24 07:39:29;;;;;;;1.38;1.27;;;20.30;58.90;;;;;;5082951;28;20062;-47
2022/06/24 07:41:55;;;;;;;2.05;1.83;;;20.30;58.90;;;;;;5081545;28;20040;-47
2022/06/24 07:44:21;;;;;;;1.63;1.52;;;20.30;58.80;;;;;;5077233;28;20092;-46
2022/06/24 07:46:48;;;;;;;1.80;1.60;;;20.30;58.80;;;;;;5082887;28;20051;-48
2022/06/24 07:49:14;;;;;;;1.92;1.77;;;20.40;58.90;;;;;;5082368;28;20021;-47
2022/06/24 07:51:40;;;;;;;1.75;1.60;;;20.40;59.20;;;;;;5079344;28;20032;-53
2022/06/24 07:54:07;;;;;;;2.13;1.88;;;20.40;59.00;;;;;;5070153;28;20459;-46
2022/06/24 07:59:18;;;;;;;3.47;1.95;;;20.40;59.30;;;;;;5070102;28;19919;-46
2022/06/24 08:01:44;;;;;;;4.20;1.80;;;20.40;59.40;;;;;;5068816;28;20105;-48
2022/06/24 08:04:11;;;;;;;4.88;2.22;;;20.50;59.70;;;;;;5073310;28;20043;-47
2022/06/24 08:06:42;;;;;;;2.40;1.67;;;20.50;60.90;;;;;;5075162;28;20036;-46
2022/06/24 08:09:08;;;;;;;12.48;2.17;;;20.50;60.70;;;;;;5068308;28;20674;-46
2022/06/24 08:11:36;;;;;;;6.05;1.95;;;20.50;61.90;;;;;;5070727;28;20040;-45
2022/06/24 08:14:02;;;;;;;;;;;20.60;62.30;;;;;;5073087;28;20048;-46
2022/06/24 08:16:28;;;;;;;22.95;4.07;;;20.60;61.90;;;;;;5072278;28;19982;-46
2022/06/24 08:18:54;;;;;;;5.60;2.75;;;20.60;62.20;;;;;;5076444;28;20040;-47
2022/06/24 08:21:21;;;;;;;9.90;2.47;;;20.60;62.20;;;;;;5068841;28;20112;-45
2022/06/24 08:23:47;;;;;;;6.60;2.20;;;20.60;62.10;;;;;;5078043;28;20044;-45
2022/06/24 08:26:14;;;;;;;7.18;2.50;;;20.60;62.10;;;;;;5076766;28;20063;-45
2022/06/24 08:28:40;;;;;;;4.13;2.08;;;20.70;62.00;;;;;;5063945;28;20033;-45
2022/06/24 08:31:06;;;;;;;4.88;1.92;;;20.70;61.90;;;;;;5080598;28;20183;-46
2022/06/24 08:33:32;;;;;;;4.78;1.85;;;20.70;61.80;;;;;;5074274;28;20029;-45
2022/06/24 08:35:58;;;;;;;6.30;2.30;;;20.70;61.80;;;;;;5063500;28;20029;-46
2022/06/24 08:38:24;;;;;;;4.80;2.05;;;20.80;61.60;;;;;;5083180;28;20020;-44
2022/06/24 08:40:52;;;;;;;8.32;2.45;;;20.80;61.50;;;;;;5083531;28;20032;-45
2022/06/24 08:43:19;;;;;;;4.68;2.08;;;20.80;61.20;;;;;;5083477;28;20060;-45
2022/06/24 08:45:45;;;;;;;4.63;2.17;;;20.80;61.00;;;;;;5083051;28;20021;-46
2022/06/24 08:48:11;;;;;;;4.28;2.15;;;20.80;60.80;;;;;;5081926;28;20043;-45
2022/06/24 08:50:37;;;;;;;4.15;1.75;;;20.90;60.70;;;;;;5083091;28;20021;-45
2022/06/24 08:53:08;;;;;;;4.23;1.80;;;20.90;60.50;;;;;;5071323;28;20029;-46
2022/06/24 08:55:38;;;;;;;4.68;2.30;;;20.90;60.30;;;;;;5068078;28;20086;-44
2022/06/24 08:58:11;;;;;;;3.08;2.00;;;20.90;60.10;;;;;;5073661;28;20029;-45
2022/06/24 09:00:38;;;;;;;3.85;2.03;;;20.90;60.00;;;;;;5067745;28;20017;-45
2022/06/24 09:03:04;;;;;;;3.65;1.85;;;20.90;59.80;;;;;;5068707;28;20040;-45
2022/06/24 09:05:30;;;;;;;3.45;1.17;;;20.90;59.70;;;;;;5065650;28;20037;-46
2022/06/24 09:08:10;;;;;;;3.10;2.00;;;20.90;59.60;;;;;;5069566;28;20107;-45
2022/06/24 09:10:37;;;;;;;4.38;1.80;;;20.90;59.50;;;;;;5071576;28;20055;-45
2022/06/24 09:13:03;;;;;;;4.50;2.15;;;21.00;59.50;;;;;;5067706;28;20025;-46
2022/06/24 09:15:30;;;;;;;6.80;1.67;;;21.00;59.40;;;;;;5070884;28;20025;-44
2022/06/24 09:17:56;;;;;;;4.73;1.77;;;21.00;59.30;;;;;;5068847;28;20028;-45
2022/06/24 09:20:27;;;;;;;4.97;2.63;;;21.00;59.30;;;;;;5072339;28;20036;-45
2022/06/24 09:23:06;;;;;;;3.08;1.85;;;21.00;59.20;;;;;;5081368;28;20056;-44
2022/06/24 09:25:51;;;;;;;4.30;1.75;;;21.00;59.20;;;;;;5083158;28;20013;-44
2022/06/24 09:28:28;;;;;;;7.03;2.22;;;21.00;59.10;;;;;;5082643;28;20626;-45
2022/06/24 09:31:03;;;;;;;3.15;1.67;;;21.00;59.10;;;;;;5082584;28;20115;-44
2022/06/24 09:33:36;;;;;;;4.93;1.60;;;21.00;59.00;;;;;;5074580;28;20044;-44
2022/06/24 09:36:03;;;;;;;5.13;2.15;;;21.00;59.00;;;;;;5066574;28;20028;-45
2022/06/24 09:38:29;;;;;;;;;;;21.10;58.90;;;;;;5083235;28;20024;-44
2022/06/24 09:41:04;;;;;;;4.13;1.73;;;21.10;58.90;;;;;;5082431;28;19936;-44
2022/06/24 09:43:31;;;;;;;1.92;1.33;;;21.10;58.90;;;;;;5082745;28;20551;-45
2022/06/24 09:45:57;;;;;;;3.05;1.73;;;21.10;59.40;;;;;;5082351;28;20086;-45
2022/06/24 09:48:27;;;;;;;3.20;1.40;;;21.10;58.80;;;;;;5082503;28;20114;-46
2022/06/24 09:50:58;;;;;;;3.03;1.50;;;21.10;58.80;;;;;;5082188;28;20023;-45
2022/06/24 09:53:25;;;;;;;2.78;1.85;;;21.10;58.70;;;;;;5082687;28;20039;-45
2022/06/24 09:55:53;;;;;;;2.63;1.60;;;21.10;58.70;;;;;;5082946;28;20075;-44
2022/06/24 09:58:20;;;;;;;2.50;1.60;;;21.10;58.70;;;;;;5082623;28;20496;-44
2022/06/24 10:00:47;;;;;;;2.92;1.85;;;21.10;58.70;;;;;;5082361;28;20194;-45
2022/06/24 10:03:13;;;;;;;2.00;1.73;;;21.10;58.60;;;;;;5071452;28;20104;-44
2022/06/24 10:05:44;;;;;;;3.20;1.70;;;21.20;58.70;;;;;;5082484;28;20033;-45
2022/06/24 10:08:12;;;;;;;3.78;1.70;;;21.10;58.60;;;;;;5082193;28;20039;-45
2022/06/24 10:10:59;;;;;;;2.67;1.52;;;21.20;58.60;;;;;;5082258;28;20024;-45
2022/06/24 10:13:29;;;;;;;2.85;1.60;;;21.20;58.70;;;;;;5082562;28;20058;-46
2022/06/24 10:16:03;;;;;;;7.50;1.52;;;21.20;58.60;;;;;;5082312;28;20048;-45
2022/06/24 10:18:48;;;;;;;5.20;1.58;;;21.20;58.60;;;;;;5082431;28;20029;-45
2022/06/24 10:21:14;;;;;;;2.13;1.63;;;21.20;58.70;;;;;;5075379;28;20036;-44
2022/06/24 10:23:43;;;;;;;4.40;1.67;;;21.20;58.70;;;;;;5044421;28;20059;-45
2022/06/24 10:26:14;;;;;;;2.65;1.40;;;21.20;58.70;;;;;;5069839;28;20032;-46
2022/06/24 10:29:04;;;;;;;2.08;1.40;;;21.20;58.60;;;;;;5086244;28;20056;-47
2022/06/24 10:31:43;;;;;;;1.88;1.50;;;21.20;58.60;;;;;;5083832;28;20059;-44
2022/06/24 10:34:26;;;;;;;2.67;1.63;;;21.20;58.70;;;;;;5078795;28;20033;-46
2022/06/24 10:37:02;;;;;;;2.53;1.80;;;21.20;58.70;;;;;;5078983;28;20428;-45
2022/06/24 10:39:32;;;;;;;2.20;1.70;;;21.20;58.70;;;;;;5065700;28;20039;-45
2022/06/24 10:42:10;;;;;;;3.22;1.45;;;21.20;58.80;;;;;;5065521;28;20052;-46
2022/06/24 10:44:37;;;;;;;3.75;1.63;;;21.20;58.70;;;;;;5065821;28;20063;-44
2022/06/24 10:47:12;;;;;;;3.03;1.77;;;21.30;58.80;;;;;;5065698;28;20078;-46
2022/06/24 10:49:56;;;;;;;3.47;1.50;;;21.30;58.80;;;;;;5065769;28;20025;-44
2022/06/24 10:52:34;;;;;;;1.85;1.50;;;21.30;58.90;;;;;;5079867;28;20027;-47
2022/06/24 10:55:28;;;;;;;3.38;1.73;;;21.20;58.90;;;;;;5085792;28;20027;-45
2022/06/24 10:57:57;;;;;;;2.63;1.65;;;21.30;59.00;;;;;;5065636;28;20033;-45
2022/06/24 11:00:23;;;;;;;2.63;1.52;;;21.30;58.90;;;;;;5065609;28;20021;-46
2022/06/24 11:02:57;;;;;;;2.42;1.20;;;21.30;58.90;;;;;;5065928;28;20032;-46
2022/06/24 11:05:29;;;;;;;2.97;1.58;;;21.30;59.00;;;;;;5065708;28;20033;-45
2022/06/24 11:07:55;;;;;;;3.25;1.52;;;21.30;58.90;;;;;;5079690;28;20120;-47
2022/06/24 11:10:27;;;;;;;2.28;1.50;;;21.30;58.90;;;;;;5085508;28;20041;-45
2022/06/24 11:12:58;;;;;;;2.22;1.27;;;21.30;58.90;;;;;;5085101;28;20016;-45
2022/06/24 11:15:39;;;;;;;2.38;1.35;;;21.30;59.00;;;;;;5068288;28;20775;-45
2022/06/24 11:18:10;;;;;;;3.30;1.40;;;21.30;58.90;;;;;;5064867;28;20036;-46
2022/06/24 11:20:40;;;;;;;4.60;1.65;;;21.30;58.90;;;;;;5065223;28;20580;-47
2022/06/24 11:23:14;;;;;;;1.95;1.30;;;21.30;58.90;;;;;;5084969;28;20032;-45
2022/06/24 11:25:47;;;;;;;1.73;1.30;;;21.30;59.00;;;;;;5084704;28;20032;-46
2022/06/24 11:28:27;;;;;;;1.80;1.23;;;21.30;59.00;;;;;;5085028;28;20043;-46
2022/06/24 11:30:54;;;;;;;2.85;1.65;;;21.30;58.90;;;;;;5085142;28;20035;-46
2022/06/24 11:33:20;;;;;;;2.28;1.67;;;21.30;58.90;;;;;;5067477;28;20037;-46
2022/06/24 11:35:48;;;;;;;2.35;1.48;;;21.30;59.00;;;;;;5065225;28;20390;-46
2022/06/24 11:38:14;;;;;;;;;;;21.30;59.00;;;;;;5083034;28;20055;-45
2022/06/24 11:40:40;;;;;;;3.67;1.70;;;21.30;58.90;;;;;;5081122;28;19908;-45
2022/06/24 11:43:11;;;;;;;1.70;1.38;;;21.30;59.00;;;;;;5084081;28;20142;-44
2022/06/24 11:45:41;;;;;;;2.35;1.55;;;21.40;59.10;;;;;;5083503;28;20108;-44
2022/06/24 11:48:18;;;;;;;1.77;1.45;;;21.30;59.00;;;;;;5084073;28;20032;-45
2022/06/24 11:50:44;;;;;;;1.98;1.63;;;21.40;59.10;;;;;;5084656;28;20051;-44
2022/06/24 11:53:10;;;;;;;2.20;1.60;;;21.40;59.10;;;;;;5084027;28;20035;-46
2022/06/24 11:55:38;;;;;;;2.30;1.70;;;21.40;59.20;;;;;;5084786;28;20021;-46
2022/06/24 11:58:05;;;;;;;1.80;1.35;;;21.40;59.10;;;;;;5084513;28;20401;-46
2022/06/24 12:00:37;;;;;;;1.88;1.45;;;21.40;59.10;;;;;;5083203;28;20055;-45
2022/06/24 12:03:06;;;;;;;2.38;1.58;;;21.40;59.00;;;;;;5079890;28;20033;-45
2022/06/24 12:05:33;;;;;;;2.28;1.75;;;21.40;59.00;;;;;;5064570;28;20025;-45
2022/06/24 12:07:59;;;;;;;1.80;1.42;;;21.40;58.90;;;;;;5080295;28;20036;-45
2022/06/24 12:10:26;;;;;;;1.75;1.48;;;21.40;58.90;;;;;;5084365;28;20095;-48
2022/06/24 12:12:57;;;;;;;2.38;1.50;;;21.40;58.80;;;;;;5083959;28;20044;-45
2022/06/24 12:15:46;;;;;;;2.10;1.63;;;21.40;59.00;;;;;;5084326;28;20025;-46
2022/06/24 12:18:19;;;;;;;3.05;1.67;;;21.40;58.90;;;;;;5074950;28;20481;-44
2022/06/24 12:21:03;;;;;;;1.73;1.33;;;21.40;59.00;;;;;;5084230;28;20029;-45
2022/06/24 12:23:37;;;;;;;1.60;1.38;;;21.40;58.90;;;;;;5083790;28;20092;-45
2022/06/24 12:26:17;;;;;;;2.28;1.60;;;21.40;58.70;;;;;;5083813;28;20076;-45
2022/06/24 12:28:44;;;;;;;3.03;1.38;;;21.40;58.90;;;;;;5083817;28;20032;-45
2022/06/24 12:31:11;;;;;;;3.53;1.80;;;21.50;58.90;;;;;;5083893;28;20033;-45
2022/06/24 12:33:38;;;;;;;;;;;21.50;59.70;;;;;;5072820;28;20021;-44
2022/06/24 12:36:18;;;;;;;2.08;1.50;;;21.40;59.00;;;;;;5084012;28;19904;-44
2022/06/24 12:38:56;;;;;;;2.33;1.58;;;21.50;59.20;;;;;;5083685;28;20036;-44
2022/06/24 12:41:23;;;;;;;3.10;1.52;;;21.50;59.30;;;;;;5083619;28;20039;-44
2022/06/24 12:43:53;;;;;;;1.80;1.30;;;21.50;59.40;;;;;;5083339;28;20481;-45
2022/06/24 12:46:22;;;;;;;2.03;1.50;;;21.50;59.50;;;;;;5083548;28;20067;-44
2022/06/24 12:51:42;;;;;;;2.70;1.77;;;21.50;59.60;;;;;;5083553;28;20058;-44
2022/06/24 12:54:09;;;;;;;2.42;1.58;;;21.50;59.70;;;;;;5083142;28;20469;-44
2022/06/24 12:56:35;;;;;;;2.85;1.60;;;21.50;59.80;;;;;;5083304;28;20032;-45
2022/06/24 12:59:02;;;;;;;2.23;1.93;;;21.60;59.90;;;;;;5083683;28;20084;-46
2022/06/24 13:01:28;;;;;;;2.63;1.30;;;21.60;60.00;;;;;;5082998;28;20317;-45
2022/06/24 13:03:55;;;;;;;2.35;1.45;;;21.60;60.20;;;;;;5083058;28;20265;-46
2022/06/24 13:06:21;;;;;;;1.80;1.65;;;21.60;60.30;;;;;;5083328;28;20055;-44